sensor_id;sensor_type;location;lat;lon;timestamp;P1;durP1;ratioP1;P2;durP2;ratioP2
5343;SDS011;2694;48.954;8.928;2024-01-06T00:00:11;14.77;;;7.35;;
5343;SDS011;2694;48.954;8.928;2024-01-06T00:02:38;16.70;;;7.55;;
5343;SDS011;2694;48.954;8.928;2024-01-06T00:05:05;18.55;;;7.70;;
5343;SDS011;2694;48.954;8.928;2024-01-06T00:07:32;22.17;;;9.05;;
5343;SDS011;2694;48.954;8.928;2024-01-06T00:09:59;20.67;;;8.40;;
5343;SDS011;2694;48.954;8.928;2024-01-06T00:12:26;13.67;;;6.50;;
5343;SDS011;2694;48.954;8.928;2024-01-06T00:14:53;11.98;;;5.50;;
5343;SDS011;2694;48.954;8.928;2024-01-06T00:17:21;12.75;;;5.10;;
5343;SDS011;2694;48.954;8.928;2024-01-06T00:19:48;12.20;;;4.40;;
5343;SDS011;2694;48.954;8.928;2024-01-06T00:22:16;8.65;;;4.20;;
5343;SDS011;2694;48.954;8.928;2024-01-06T00:24:43;9.02;;;3.95;;
5343;SDS011;2694;48.954;8.928;2024-01-06T00:27:10;8.32;;;3.90;;
5343;SDS011;2694;48.954;8.928;2024-01-06T00:29:37;13.38;;;4.75;;
5343;SDS011;2694;48.954;8.928;2024-01-06T00:32:04;11.38;;;4.80;;
5343;SDS011;2694;48.954;8.928;2024-01-06T00:34:32;6.35;;;3.53;;
5343;SDS011;2694;48.954;8.928;2024-01-06T00:36:59;9.57;;;4.20;;
5343;SDS011;2694;48.954;8.928;2024-01-06T00:39:26;7.85;;;4.30;;
5343;SDS011;2694;48.954;8.928;2024-01-06T00:41:53;7.57;;;3.90;;
5343;SDS011;2694;48.954;8.928;2024-01-06T00:44:20;9.52;;;4.80;;
5343;SDS011;2694;48.954;8.928;2024-01-06T00:46:47;11.45;;;5.10;;
5343;SDS011;2694;48.954;8.928;2024-01-06T00:49:14;12.13;;;4.38;;
5343;SDS011;2694;48.954;8.928;2024-01-06T00:51:42;9.68;;;4.50;;
5343;SDS011;2694;48.954;8.928;2024-01-06T00:54:09;9.30;;;5.28;;
5343;SDS011;2694;48.954;8.928;2024-01-06T00:56:37;11.52;;;4.57;;
5343;SDS011;2694;48.954;8.928;2024-01-06T00:59:05;8.88;;;4.05;;
5343;SDS011;2694;48.954;8.928;2024-01-06T01:01:32;8.77;;;4.20;;
5343;SDS011;2694;48.954;8.928;2024-01-06T01:04:00;8.80;;;4.30;;
5343;SDS011;2694;48.954;8.928;2024-01-06T01:06:28;8.23;;;3.90;;
5343;SDS011;2694;48.954;8.928;2024-01-06T01:08:58;9.00;;;4.40;;
5343;SDS011;2694;48.954;8.928;2024-01-06T01:11:26;8.60;;;4.30;;
5343;SDS011;2694;48.954;8.928;2024-01-06T01:13:54;6.32;;;4.10;;
5343;SDS011;2694;48.954;8.928;2024-01-06T01:16:21;9.18;;;3.83;;
5343;SDS011;2694;48.954;8.928;2024-01-06T01:18:50;6.55;;;3.60;;
5343;SDS011;2694;48.954;8.928;2024-01-06T01:21:16;8.27;;;4.25;;
5343;SDS011;2694;48.954;8.928;2024-01-06T01:23:44;9.30;;;4.10;;
5343;SDS011;2694;48.954;8.928;2024-01-06T01:26:24;7.53;;;4.30;;
5343;SDS011;2694;48.954;8.928;2024-01-06T01:28:55;11.57;;;5.60;;
5343;SDS011;2694;48.954;8.928;2024-01-06T01:31:23;9.95;;;5.20;;
5343;SDS011;2694;48.954;8.928;2024-01-06T01:33:51;11.30;;;4.70;;
5343;SDS011;2694;48.954;8.928;2024-01-06T01:36:19;14.40;;;4.85;;
5343;SDS011;2694;48.954;8.928;2024-01-06T01:38:47;7.30;;;3.88;;
5343;SDS011;2694;48.954;8.928;2024-01-06T01:41:17;8.98;;;4.25;;
5343;SDS011;2694;48.954;8.928;2024-01-06T01:43:45;9.02;;;4.07;;
5343;SDS011;2694;48.954;8.928;2024-01-06T01:46:13;10.82;;;4.30;;
5343;SDS011;2694;48.954;8.928;2024-01-06T01:48:41;6.97;;;3.47;;
5343;SDS011;2694;48.954;8.928;2024-01-06T01:51:08;8.00;;;3.20;;
5343;SDS011;2694;48.954;8.928;2024-01-06T01:53:35;7.57;;;3.08;;
5343;SDS011;2694;48.954;8.928;2024-01-06T01:56:03;8.07;;;3.38;;
5343;SDS011;2694;48.954;8.928;2024-01-06T01:58:32;6.32;;;3.30;;
5343;SDS011;2694;48.954;8.928;2024-01-06T02:00:59;9.98;;;3.60;;
5343;SDS011;2694;48.954;8.928;2024-01-06T02:03:26;7.10;;;3.70;;
5343;SDS011;2694;48.954;8.928;2024-01-06T02:05:54;11.90;;;4.10;;
5343;SDS011;2694;48.954;8.928;2024-01-06T02:08:21;9.38;;;4.10;;
5343;SDS011;2694;48.954;8.928;2024-01-06T02:10:48;8.07;;;3.85;;
5343;SDS011;2694;48.954;8.928;2024-01-06T02:13:15;10.95;;;3.45;;
5343;SDS011;2694;48.954;8.928;2024-01-06T02:15:44;7.93;;;4.43;;
5343;SDS011;2694;48.954;8.928;2024-01-06T02:18:12;9.00;;;3.88;;
5343;SDS011;2694;48.954;8.928;2024-01-06T02:20:40;7.20;;;3.53;;
5343;SDS011;2694;48.954;8.928;2024-01-06T02:23:12;8.10;;;3.10;;
5343;SDS011;2694;48.954;8.928;2024-01-06T02:25:40;9.00;;;3.72;;
5343;SDS011;2694;48.954;8.928;2024-01-06T02:28:08;8.43;;;3.60;;
5343;SDS011;2694;48.954;8.928;2024-01-06T02:30:36;6.75;;;3.80;;
5343;SDS011;2694;48.954;8.928;2024-01-06T02:33:03;6.32;;;3.50;;
5343;SDS011;2694;48.954;8.928;2024-01-06T02:35:31;8.90;;;3.97;;
5343;SDS011;2694;48.954;8.928;2024-01-06T02:37:58;10.02;;;3.65;;
5343;SDS011;2694;48.954;8.928;2024-01-06T02:40:32;6.93;;;2.85;;
5343;SDS011;2694;48.954;8.928;2024-01-06T02:42:58;6.00;;;3.60;;
5343;SDS011;2694;48.954;8.928;2024-01-06T02:45:25;7.40;;;3.35;;
5343;SDS011;2694;48.954;8.928;2024-01-06T02:47:53;8.82;;;3.40;;
5343;SDS011;2694;48.954;8.928;2024-01-06T02:50:21;8.75;;;3.65;;
5343;SDS011;2694;48.954;8.928;2024-01-06T02:52:50;7.40;;;3.70;;
5343;SDS011;2694;48.954;8.928;2024-01-06T02:55:17;8.82;;;3.80;;
5343;SDS011;2694;48.954;8.928;2024-01-06T02:57:47;10.93;;;3.63;;
5343;SDS011;2694;48.954;8.928;2024-01-06T03:00:15;7.63;;;2.90;;
5343;SDS011;2694;48.954;8.928;2024-01-06T03:02:43;5.30;;;2.80;;
5343;SDS011;2694;48.954;8.928;2024-01-06T03:05:11;6.15;;;3.30;;
5343;SDS011;2694;48.954;8.928;2024-01-06T03:07:39;5.57;;;3.17;;
5343;SDS011;2694;48.954;8.928;2024-01-06T03:10:07;6.15;;;2.75;;
5343;SDS011;2694;48.954;8.928;2024-01-06T03:12:36;6.28;;;2.85;;
5343;SDS011;2694;48.954;8.928;2024-01-06T03:15:06;5.60;;;2.70;;
5343;SDS011;2694;48.954;8.928;2024-01-06T03:17:35;6.50;;;2.40;;
5343;SDS011;2694;48.954;8.928;2024-01-06T03:20:01;6.53;;;2.53;;
5343;SDS011;2694;48.954;8.928;2024-01-06T03:22:33;4.40;;;1.90;;
5343;SDS011;2694;48.954;8.928;2024-01-06T03:25:02;5.23;;;2.40;;
5343;SDS011;2694;48.954;8.928;2024-01-06T03:27:30;4.65;;;2.33;;
5343;SDS011;2694;48.954;8.928;2024-01-06T03:29:59;4.93;;;2.50;;
5343;SDS011;2694;48.954;8.928;2024-01-06T03:32:31;6.45;;;2.15;;
5343;SDS011;2694;48.954;8.928;2024-01-06T03:34:59;8.10;;;2.60;;
5343;SDS011;2694;48.954;8.928;2024-01-06T03:37:27;7.75;;;2.00;;
5343;SDS011;2694;48.954;8.928;2024-01-06T03:39:57;4.65;;;1.80;;
5343;SDS011;2694;48.954;8.928;2024-01-06T03:42:27;9.35;;;2.80;;
5343;SDS011;2694;48.954;8.928;2024-01-06T03:44:58;4.30;;;2.10;;
5343;SDS011;2694;48.954;8.928;2024-01-06T03:47:28;3.97;;;2.08;;
5343;SDS011;2694;48.954;8.928;2024-01-06T03:50:03;6.82;;;2.10;;
5343;SDS011;2694;48.954;8.928;2024-01-06T03:52:32;4.70;;;1.60;;
5343;SDS011;2694;48.954;8.928;2024-01-06T03:55:00;3.90;;;1.70;;
5343;SDS011;2694;48.954;8.928;2024-01-06T03:57:29;6.72;;;1.85;;
5343;SDS011;2694;48.954;8.928;2024-01-06T03:59:57;4.43;;;1.90;;
5343;SDS011;2694;48.954;8.928;2024-01-06T04:02:25;3.90;;;2.00;;
5343;SDS011;2694;48.954;8.928;2024-01-06T04:04:53;6.07;;;1.80;;
5343;SDS011;2694;48.954;8.928;2024-01-06T04:07:26;3.38;;;1.70;;
5343;SDS011;2694;48.954;8.928;2024-01-06T04:09:53;4.97;;;1.42;;
5343;SDS011;2694;48.954;8.928;2024-01-06T04:12:20;3.83;;;1.77;;
5343;SDS011;2694;48.954;8.928;2024-01-06T04:14:49;5.82;;;1.90;;
5343;SDS011;2694;48.954;8.928;2024-01-06T04:17:16;3.43;;;1.47;;
5343;SDS011;2694;48.954;8.928;2024-01-06T04:19:44;6.55;;;1.90;;
5343;SDS011;2694;48.954;8.928;2024-01-06T04:22:12;4.22;;;1.50;;
5343;SDS011;2694;48.954;8.928;2024-01-06T04:24:42;7.45;;;1.90;;
5343;SDS011;2694;48.954;8.928;2024-01-06T04:27:10;6.67;;;1.40;;
5343;SDS011;2694;48.954;8.928;2024-01-06T04:29:38;4.00;;;1.48;;
5343;SDS011;2694;48.954;8.928;2024-01-06T04:32:06;7.00;;;1.50;;
5343;SDS011;2694;48.954;8.928;2024-01-06T04:34:37;5.30;;;1.42;;
5343;SDS011;2694;48.954;8.928;2024-01-06T04:37:08;6.57;;;1.73;;
5343;SDS011;2694;48.954;8.928;2024-01-06T04:39:36;4.78;;;1.38;;
5343;SDS011;2694;48.954;8.928;2024-01-06T04:42:16;4.25;;;1.30;;
5343;SDS011;2694;48.954;8.928;2024-01-06T04:44:45;6.18;;;1.50;;
5343;SDS011;2694;48.954;8.928;2024-01-06T04:47:14;4.80;;;1.33;;
5343;SDS011;2694;48.954;8.928;2024-01-06T04:49:41;6.47;;;1.48;;
5343;SDS011;2694;48.954;8.928;2024-01-06T04:52:09;5.50;;;1.50;;
5343;SDS011;2694;48.954;8.928;2024-01-06T04:54:38;5.07;;;2.17;;
5343;SDS011;2694;48.954;8.928;2024-01-06T04:57:10;6.05;;;1.88;;
5343;SDS011;2694;48.954;8.928;2024-01-06T04:59:38;6.90;;;2.13;;
5343;SDS011;2694;48.954;8.928;2024-01-06T05:02:06;8.80;;;2.00;;
5343;SDS011;2694;48.954;8.928;2024-01-06T05:04:34;5.00;;;1.80;;
5343;SDS011;2694;48.954;8.928;2024-01-06T05:07:05;7.35;;;2.20;;
5343;SDS011;2694;48.954;8.928;2024-01-06T05:09:35;7.18;;;1.70;;
5343;SDS011;2694;48.954;8.928;2024-01-06T05:12:03;9.38;;;1.80;;
5343;SDS011;2694;48.954;8.928;2024-01-06T05:14:36;5.25;;;1.80;;
5343;SDS011;2694;48.954;8.928;2024-01-06T05:17:05;8.27;;;2.00;;
5343;SDS011;2694;48.954;8.928;2024-01-06T05:19:36;5.97;;;1.70;;
5343;SDS011;2694;48.954;8.928;2024-01-06T05:22:06;7.03;;;2.00;;
5343;SDS011;2694;48.954;8.928;2024-01-06T05:24:35;6.85;;;1.80;;
5343;SDS011;2694;48.954;8.928;2024-01-06T05:27:05;4.35;;;1.80;;
5343;SDS011;2694;48.954;8.928;2024-01-06T05:29:41;10.05;;;1.60;;
5343;SDS011;2694;48.954;8.928;2024-01-06T05:32:09;2.63;;;1.30;;
5343;SDS011;2694;48.954;8.928;2024-01-06T05:34:38;8.25;;;1.75;;
5343;SDS011;2694;48.954;8.928;2024-01-06T05:37:07;6.00;;;1.80;;
5343;SDS011;2694;48.954;8.928;2024-01-06T05:39:38;8.87;;;1.93;;
5343;SDS011;2694;48.954;8.928;2024-01-06T05:42:08;7.20;;;1.80;;
5343;SDS011;2694;48.954;8.928;2024-01-06T05:44:51;7.00;;;1.92;;
5343;SDS011;2694;48.954;8.928;2024-01-06T05:47:21;12.93;;;2.20;;
5343;SDS011;2694;48.954;8.928;2024-01-06T05:49:49;4.83;;;1.70;;
5343;SDS011;2694;48.954;8.928;2024-01-06T05:52:17;3.75;;;1.60;;
5343;SDS011;2694;48.954;8.928;2024-01-06T05:54:45;10.77;;;2.00;;
5343;SDS011;2694;48.954;8.928;2024-01-06T05:57:12;9.73;;;2.60;;
5343;SDS011;2694;48.954;8.928;2024-01-06T05:59:43;6.97;;;3.10;;
5343;SDS011;2694;48.954;8.928;2024-01-06T06:02:11;7.22;;;2.15;;
5343;SDS011;2694;48.954;8.928;2024-01-06T06:04:40;5.80;;;1.88;;
5343;SDS011;2694;48.954;8.928;2024-01-06T06:07:10;4.47;;;1.77;;
5343;SDS011;2694;48.954;8.928;2024-01-06T06:09:41;10.60;;;2.03;;
5343;SDS011;2694;48.954;8.928;2024-01-06T06:12:09;6.07;;;2.00;;
5343;SDS011;2694;48.954;8.928;2024-01-06T06:14:36;6.75;;;3.00;;
5343;SDS011;2694;48.954;8.928;2024-01-06T06:17:06;9.57;;;2.22;;
5343;SDS011;2694;48.954;8.928;2024-01-06T06:19:35;8.60;;;2.20;;
5343;SDS011;2694;48.954;8.928;2024-01-06T06:22:01;7.30;;;1.80;;
5343;SDS011;2694;48.954;8.928;2024-01-06T06:24:30;3.85;;;1.55;;
5343;SDS011;2694;48.954;8.928;2024-01-06T06:27:00;7.28;;;1.90;;
5343;SDS011;2694;48.954;8.928;2024-01-06T06:29:30;7.40;;;2.10;;
5343;SDS011;2694;48.954;8.928;2024-01-06T06:32:00;6.28;;;1.73;;
5343;SDS011;2694;48.954;8.928;2024-01-06T06:34:36;7.97;;;1.90;;
5343;SDS011;2694;48.954;8.928;2024-01-06T06:37:06;3.47;;;1.67;;
5343;SDS011;2694;48.954;8.928;2024-01-06T06:39:34;6.65;;;1.70;;
5343;SDS011;2694;48.954;8.928;2024-01-06T06:42:02;5.43;;;2.10;;
5343;SDS011;2694;48.954;8.928;2024-01-06T06:44:32;8.55;;;2.00;;
5343;SDS011;2694;48.954;8.928;2024-01-06T06:47:00;5.88;;;1.90;;
5343;SDS011;2694;48.954;8.928;2024-01-06T06:49:36;6.10;;;1.90;;
5343;SDS011;2694;48.954;8.928;2024-01-06T06:52:06;7.03;;;1.80;;
5343;SDS011;2694;48.954;8.928;2024-01-06T06:54:38;6.68;;;2.15;;
5343;SDS011;2694;48.954;8.928;2024-01-06T06:57:06;7.05;;;2.00;;
5343;SDS011;2694;48.954;8.928;2024-01-06T06:59:34;6.32;;;2.08;;
5343;SDS011;2694;48.954;8.928;2024-01-06T07:02:05;9.90;;;2.15;;
5343;SDS011;2694;48.954;8.928;2024-01-06T07:04:34;8.52;;;1.98;;
5343;SDS011;2694;48.954;8.928;2024-01-06T07:07:03;7.43;;;2.17;;
5343;SDS011;2694;48.954;8.928;2024-01-06T07:09:31;4.35;;;1.42;;
5343;SDS011;2694;48.954;8.928;2024-01-06T07:12:01;7.18;;;2.00;;
5343;SDS011;2694;48.954;8.928;2024-01-06T07:14:30;7.43;;;2.17;;
5343;SDS011;2694;48.954;8.928;2024-01-06T07:16:56;5.90;;;2.30;;
5343;SDS011;2694;48.954;8.928;2024-01-06T07:19:25;8.13;;;2.50;;
5343;SDS011;2694;48.954;8.928;2024-01-06T07:21:57;5.35;;;2.20;;
5343;SDS011;2694;48.954;8.928;2024-01-06T07:24:25;6.00;;;1.83;;
5343;SDS011;2694;48.954;8.928;2024-01-06T07:26:53;4.10;;;2.00;;
5343;SDS011;2694;48.954;8.928;2024-01-06T07:29:20;4.82;;;1.90;;
5343;SDS011;2694;48.954;8.928;2024-01-06T07:31:48;8.40;;;2.17;;
5343;SDS011;2694;48.954;8.928;2024-01-06T07:34:16;5.75;;;2.00;;
5343;SDS011;2694;48.954;8.928;2024-01-06T07:36:44;6.40;;;1.70;;
5343;SDS011;2694;48.954;8.928;2024-01-06T07:39:13;7.38;;;2.20;;
5343;SDS011;2694;48.954;8.928;2024-01-06T07:41:41;6.45;;;2.25;;
5343;SDS011;2694;48.954;8.928;2024-01-06T07:44:12;6.72;;;2.20;;
5343;SDS011;2694;48.954;8.928;2024-01-06T07:46:42;4.00;;;1.70;;
5343;SDS011;2694;48.954;8.928;2024-01-06T07:49:10;10.57;;;2.38;;
5343;SDS011;2694;48.954;8.928;2024-01-06T07:51:38;3.90;;;1.58;;
5343;SDS011;2694;48.954;8.928;2024-01-06T07:54:06;5.18;;;1.40;;
5343;SDS011;2694;48.954;8.928;2024-01-06T07:56:39;3.45;;;1.40;;
5343;SDS011;2694;48.954;8.928;2024-01-06T07:59:07;3.70;;;1.57;;
5343;SDS011;2694;48.954;8.928;2024-01-06T08:01:35;5.05;;;2.25;;
5343;SDS011;2694;48.954;8.928;2024-01-06T08:04:03;7.67;;;2.07;;
5343;SDS011;2694;48.954;8.928;2024-01-06T08:06:31;6.85;;;2.10;;
5343;SDS011;2694;48.954;8.928;2024-01-06T08:09:02;6.90;;;2.30;;
5343;SDS011;2694;48.954;8.928;2024-01-06T08:11:35;5.95;;;2.20;;
5343;SDS011;2694;48.954;8.928;2024-01-06T08:14:07;5.90;;;2.42;;
5343;SDS011;2694;48.954;8.928;2024-01-06T08:16:37;6.00;;;2.90;;
5343;SDS011;2694;48.954;8.928;2024-01-06T08:19:05;5.60;;;3.10;;
5343;SDS011;2694;48.954;8.928;2024-01-06T08:21:33;8.35;;;2.33;;
5343;SDS011;2694;48.954;8.928;2024-01-06T08:24:02;4.07;;;2.10;;
5343;SDS011;2694;48.954;8.928;2024-01-06T08:26:29;4.03;;;1.98;;
5343;SDS011;2694;48.954;8.928;2024-01-06T08:28:56;3.45;;;2.20;;
5343;SDS011;2694;48.954;8.928;2024-01-06T08:31:24;6.10;;;2.60;;
5343;SDS011;2694;48.954;8.928;2024-01-06T08:33:51;7.00;;;2.50;;
5343;SDS011;2694;48.954;8.928;2024-01-06T08:36:18;9.20;;;3.80;;
5343;SDS011;2694;48.954;8.928;2024-01-06T08:38:44;9.40;;;3.25;;
5343;SDS011;2694;48.954;8.928;2024-01-06T08:41:11;8.00;;;3.90;;
5343;SDS011;2694;48.954;8.928;2024-01-06T08:43:38;7.35;;;3.17;;
5343;SDS011;2694;48.954;8.928;2024-01-06T08:46:05;6.20;;;3.00;;
5343;SDS011;2694;48.954;8.928;2024-01-06T08:48:33;4.78;;;2.60;;
5343;SDS011;2694;48.954;8.928;2024-01-06T08:51:00;4.85;;;2.78;;
5343;SDS011;2694;48.954;8.928;2024-01-06T08:53:27;6.97;;;3.10;;
5343;SDS011;2694;48.954;8.928;2024-01-06T08:55:54;6.00;;;3.03;;
5343;SDS011;2694;48.954;8.928;2024-01-06T08:58:21;5.55;;;2.63;;
5343;SDS011;2694;48.954;8.928;2024-01-06T09:00:48;6.15;;;3.50;;
5343;SDS011;2694;48.954;8.928;2024-01-06T09:03:15;7.55;;;3.63;;
5343;SDS011;2694;48.954;8.928;2024-01-06T09:05:44;3.50;;;2.63;;
5343;SDS011;2694;48.954;8.928;2024-01-06T09:08:10;4.32;;;2.60;;
5343;SDS011;2694;48.954;8.928;2024-01-06T09:10:37;8.60;;;3.47;;
5343;SDS011;2694;48.954;8.928;2024-01-06T09:13:04;5.35;;;3.10;;
5343;SDS011;2694;48.954;8.928;2024-01-06T09:15:31;4.82;;;3.17;;
5343;SDS011;2694;48.954;8.928;2024-01-06T09:17:58;5.97;;;2.70;;
5343;SDS011;2694;48.954;8.928;2024-01-06T09:20:25;7.22;;;3.20;;
5343;SDS011;2694;48.954;8.928;2024-01-06T09:22:53;4.50;;;3.10;;
5343;SDS011;2694;48.954;8.928;2024-01-06T09:25:20;5.00;;;3.00;;
5343;SDS011;2694;48.954;8.928;2024-01-06T09:27:49;5.80;;;3.35;;
5343;SDS011;2694;48.954;8.928;2024-01-06T09:30:16;8.63;;;3.75;;
5343;SDS011;2694;48.954;8.928;2024-01-06T09:32:43;6.88;;;3.40;;
5343;SDS011;2694;48.954;8.928;2024-01-06T09:35:10;8.73;;;3.20;;
5343;SDS011;2694;48.954;8.928;2024-01-06T09:37:37;7.82;;;3.70;;
5343;SDS011;2694;48.954;8.928;2024-01-06T09:40:07;8.40;;;3.67;;
5343;SDS011;2694;48.954;8.928;2024-01-06T09:42:39;7.22;;;3.30;;
5343;SDS011;2694;48.954;8.928;2024-01-06T09:45:06;7.87;;;3.30;;
5343;SDS011;2694;48.954;8.928;2024-01-06T09:47:34;10.65;;;3.60;;
5343;SDS011;2694;48.954;8.928;2024-01-06T09:50:03;7.80;;;3.17;;
5343;SDS011;2694;48.954;8.928;2024-01-06T09:52:34;9.37;;;3.73;;
5343;SDS011;2694;48.954;8.928;2024-01-06T09:55:10;8.25;;;3.20;;
5343;SDS011;2694;48.954;8.928;2024-01-06T09:57:37;8.65;;;3.72;;
5343;SDS011;2694;48.954;8.928;2024-01-06T10:00:05;5.23;;;3.37;;
5343;SDS011;2694;48.954;8.928;2024-01-06T10:02:34;7.22;;;3.05;;
5343;SDS011;2694;48.954;8.928;2024-01-06T10:05:01;7.93;;;3.28;;
5343;SDS011;2694;48.954;8.928;2024-01-06T10:07:28;6.10;;;3.10;;
5343;SDS011;2694;48.954;8.928;2024-01-06T10:09:57;11.45;;;6.07;;
5343;SDS011;2694;48.954;8.928;2024-01-06T10:12:25;10.17;;;4.93;;
5343;SDS011;2694;48.954;8.928;2024-01-06T10:14:53;7.50;;;3.40;;
5343;SDS011;2694;48.954;8.928;2024-01-06T10:17:21;7.38;;;3.40;;
5343;SDS011;2694;48.954;8.928;2024-01-06T10:19:49;7.32;;;3.25;;
5343;SDS011;2694;48.954;8.928;2024-01-06T10:22:19;7.75;;;3.30;;
5343;SDS011;2694;48.954;8.928;2024-01-06T10:24:47;4.88;;;3.45;;
5343;SDS011;2694;48.954;8.928;2024-01-06T10:27:15;7.47;;;3.80;;
5343;SDS011;2694;48.954;8.928;2024-01-06T10:29:45;10.43;;;3.50;;
5343;SDS011;2694;48.954;8.928;2024-01-06T10:32:13;9.60;;;3.83;;
5343;SDS011;2694;48.954;8.928;2024-01-06T10:34:42;9.07;;;4.50;;
5343;SDS011;2694;48.954;8.928;2024-01-06T10:37:09;7.10;;;3.97;;
5343;SDS011;2694;48.954;8.928;2024-01-06T10:39:37;10.80;;;5.32;;
5343;SDS011;2694;48.954;8.928;2024-01-06T10:42:04;10.43;;;5.20;;
5343;SDS011;2694;48.954;8.928;2024-01-06T10:44:32;11.05;;;4.90;;
5343;SDS011;2694;48.954;8.928;2024-01-06T10:47:02;10.55;;;4.20;;
5343;SDS011;2694;48.954;8.928;2024-01-06T10:49:29;8.18;;;4.40;;
5343;SDS011;2694;48.954;8.928;2024-01-06T10:51:57;6.90;;;4.22;;
5343;SDS011;2694;48.954;8.928;2024-01-06T10:54:25;8.95;;;3.90;;
5343;SDS011;2694;48.954;8.928;2024-01-06T10:56:54;7.90;;;4.50;;
5343;SDS011;2694;48.954;8.928;2024-01-06T10:59:24;6.18;;;3.80;;
5343;SDS011;2694;48.954;8.928;2024-01-06T11:01:56;6.50;;;3.80;;
5343;SDS011;2694;48.954;8.928;2024-01-06T11:04:26;9.07;;;4.20;;
5343;SDS011;2694;48.954;8.928;2024-01-06T11:06:53;6.97;;;3.95;;
5343;SDS011;2694;48.954;8.928;2024-01-06T11:09:22;5.78;;;3.83;;
5343;SDS011;2694;48.954;8.928;2024-01-06T11:11:56;9.15;;;3.70;;
5343;SDS011;2694;48.954;8.928;2024-01-06T11:14:23;9.38;;;4.32;;
5343;SDS011;2694;48.954;8.928;2024-01-06T11:16:51;8.52;;;3.97;;
5343;SDS011;2694;48.954;8.928;2024-01-06T11:22:18;7.80;;;4.35;;
5343;SDS011;2694;48.954;8.928;2024-01-06T11:24:46;7.35;;;4.10;;
5343;SDS011;2694;48.954;8.928;2024-01-06T11:27:18;8.07;;;3.72;;
5343;SDS011;2694;48.954;8.928;2024-01-06T11:29:50;6.15;;;3.85;;
5343;SDS011;2694;48.954;8.928;2024-01-06T11:32:19;8.98;;;4.40;;
5343;SDS011;2694;48.954;8.928;2024-01-06T11:34:49;7.18;;;4.38;;
5343;SDS011;2694;48.954;8.928;2024-01-06T11:37:19;7.05;;;3.88;;
5343;SDS011;2694;48.954;8.928;2024-01-06T11:39:50;4.90;;;3.40;;
5343;SDS011;2694;48.954;8.928;2024-01-06T11:42:18;8.10;;;4.10;;
5343;SDS011;2694;48.954;8.928;2024-01-06T11:44:49;7.55;;;3.70;;
5343;SDS011;2694;48.954;8.928;2024-01-06T11:47:16;9.40;;;4.47;;
5343;SDS011;2694;48.954;8.928;2024-01-06T11:49:50;8.00;;;3.95;;
5343;SDS011;2694;48.954;8.928;2024-01-06T11:52:21;9.48;;;4.70;;
5343;SDS011;2694;48.954;8.928;2024-01-06T11:54:50;7.28;;;4.38;;
5343;SDS011;2694;48.954;8.928;2024-01-06T11:57:18;11.52;;;4.10;;
5343;SDS011;2694;48.954;8.928;2024-01-06T11:59:46;9.38;;;4.68;;
5343;SDS011;2694;48.954;8.928;2024-01-06T12:02:16;5.85;;;4.00;;
5343;SDS011;2694;48.954;8.928;2024-01-06T12:04:47;8.00;;;4.40;;
5343;SDS011;2694;48.954;8.928;2024-01-06T12:07:17;7.32;;;3.70;;
5343;SDS011;2694;48.954;8.928;2024-01-06T12:09:45;6.68;;;3.88;;
5343;SDS011;2694;48.954;8.928;2024-01-06T12:12:12;7.35;;;3.40;;
5343;SDS011;2694;48.954;8.928;2024-01-06T12:14:41;6.20;;;3.90;;
5343;SDS011;2694;48.954;8.928;2024-01-06T12:17:09;8.77;;;4.80;;
5343;SDS011;2694;48.954;8.928;2024-01-06T12:19:38;10.25;;;4.72;;
5343;SDS011;2694;48.954;8.928;2024-01-06T12:22:09;5.22;;;4.00;;
5343;SDS011;2694;48.954;8.928;2024-01-06T12:24:37;6.30;;;3.97;;
5343;SDS011;2694;48.954;8.928;2024-01-06T12:27:06;8.18;;;4.10;;
5343;SDS011;2694;48.954;8.928;2024-01-06T12:29:33;7.13;;;3.92;;
5343;SDS011;2694;48.954;8.928;2024-01-06T12:32:03;12.63;;;4.60;;
5343;SDS011;2694;48.954;8.928;2024-01-06T12:34:30;8.30;;;4.10;;
5343;SDS011;2694;48.954;8.928;2024-01-06T12:36:57;7.57;;;4.37;;
5343;SDS011;2694;48.954;8.928;2024-01-06T12:39:28;6.43;;;3.63;;
5343;SDS011;2694;48.954;8.928;2024-01-06T12:41:55;6.60;;;3.88;;
5343;SDS011;2694;48.954;8.928;2024-01-06T12:44:23;6.82;;;4.15;;
5343;SDS011;2694;48.954;8.928;2024-01-06T12:46:50;8.68;;;4.38;;
5343;SDS011;2694;48.954;8.928;2024-01-06T12:49:16;6.28;;;3.40;;
5343;SDS011;2694;48.954;8.928;2024-01-06T12:51:43;8.02;;;3.60;;
5343;SDS011;2694;48.954;8.928;2024-01-06T12:54:10;7.13;;;3.90;;
5343;SDS011;2694;48.954;8.928;2024-01-06T12:56:38;7.00;;;4.07;;
5343;SDS011;2694;48.954;8.928;2024-01-06T12:59:06;8.15;;;3.83;;
5343;SDS011;2694;48.954;8.928;2024-01-06T13:01:33;8.27;;;4.25;;
5343;SDS011;2694;48.954;8.928;2024-01-06T13:04:00;8.05;;;4.20;;
5343;SDS011;2694;48.954;8.928;2024-01-06T13:06:27;6.68;;;4.30;;
5343;SDS011;2694;48.954;8.928;2024-01-06T13:08:54;8.60;;;4.82;;
5343;SDS011;2694;48.954;8.928;2024-01-06T13:11:21;8.10;;;4.15;;
5343;SDS011;2694;48.954;8.928;2024-01-06T13:13:50;6.55;;;3.85;;
5343;SDS011;2694;48.954;8.928;2024-01-06T13:16:17;8.10;;;4.45;;
5343;SDS011;2694;48.954;8.928;2024-01-06T13:18:44;6.85;;;4.40;;
5343;SDS011;2694;48.954;8.928;2024-01-06T13:21:11;6.85;;;4.30;;
5343;SDS011;2694;48.954;8.928;2024-01-06T13:23:38;7.87;;;4.30;;
5343;SDS011;2694;48.954;8.928;2024-01-06T13:26:05;9.68;;;4.70;;
5343;SDS011;2694;48.954;8.928;2024-01-06T13:28:33;6.35;;;4.10;;
5343;SDS011;2694;48.954;8.928;2024-01-06T13:31:02;7.82;;;4.25;;
5343;SDS011;2694;48.954;8.928;2024-01-06T13:33:29;8.27;;;4.50;;
5343;SDS011;2694;48.954;8.928;2024-01-06T13:35:56;8.05;;;4.30;;
5343;SDS011;2694;48.954;8.928;2024-01-06T13:38:23;8.70;;;4.20;;
5343;SDS011;2694;48.954;8.928;2024-01-06T13:40:52;9.77;;;5.10;;
5343;SDS011;2694;48.954;8.928;2024-01-06T13:43:19;12.32;;;5.82;;
5343;SDS011;2694;48.954;8.928;2024-01-06T13:45:45;9.40;;;5.53;;
5343;SDS011;2694;48.954;8.928;2024-01-06T13:48:14;9.38;;;5.13;;
5343;SDS011;2694;48.954;8.928;2024-01-06T13:50:40;8.80;;;5.30;;
5343;SDS011;2694;48.954;8.928;2024-01-06T13:53:08;9.03;;;4.87;;
5343;SDS011;2694;48.954;8.928;2024-01-06T13:55:35;10.77;;;5.32;;
5343;SDS011;2694;48.954;8.928;2024-01-06T13:58:02;8.95;;;4.97;;
5343;SDS011;2694;48.954;8.928;2024-01-06T14:00:29;10.80;;;6.00;;
5343;SDS011;2694;48.954;8.928;2024-01-06T14:02:56;8.30;;;5.28;;
5343;SDS011;2694;48.954;8.928;2024-01-06T14:05:24;9.57;;;5.88;;
5343;SDS011;2694;48.954;8.928;2024-01-06T14:07:51;9.73;;;5.55;;
5343;SDS011;2694;48.954;8.928;2024-01-06T14:10:18;11.05;;;5.93;;
5343;SDS011;2694;48.954;8.928;2024-01-06T14:12:45;9.83;;;5.60;;
5343;SDS011;2694;48.954;8.928;2024-01-06T14:15:12;12.48;;;6.60;;
5343;SDS011;2694;48.954;8.928;2024-01-06T14:17:39;9.73;;;6.07;;
5343;SDS011;2694;48.954;8.928;2024-01-06T14:20:07;12.52;;;6.60;;
5343;SDS011;2694;48.954;8.928;2024-01-06T14:22:39;14.93;;;7.30;;
5343;SDS011;2694;48.954;8.928;2024-01-06T14:25:06;17.92;;;7.00;;
5343;SDS011;2694;48.954;8.928;2024-01-06T14:27:33;12.57;;;7.13;;
5343;SDS011;2694;48.954;8.928;2024-01-06T14:30:00;11.27;;;6.25;;
5343;SDS011;2694;48.954;8.928;2024-01-06T14:32:27;12.52;;;7.80;;
5343;SDS011;2694;48.954;8.928;2024-01-06T14:34:54;11.63;;;7.32;;
5343;SDS011;2694;48.954;8.928;2024-01-06T14:37:21;12.25;;;6.60;;
5343;SDS011;2694;48.954;8.928;2024-01-06T14:39:49;9.90;;;6.38;;
5343;SDS011;2694;48.954;8.928;2024-01-06T14:42:16;11.13;;;6.55;;
5343;SDS011;2694;48.954;8.928;2024-01-06T14:44:44;10.73;;;6.07;;
5343;SDS011;2694;48.954;8.928;2024-01-06T14:47:11;11.93;;;5.80;;
5343;SDS011;2694;48.954;8.928;2024-01-06T14:49:37;12.57;;;6.50;;
5343;SDS011;2694;48.954;8.928;2024-01-06T14:52:05;11.23;;;5.75;;
5343;SDS011;2694;48.954;8.928;2024-01-06T14:54:32;8.48;;;5.53;;
5343;SDS011;2694;48.954;8.928;2024-01-06T14:57:00;14.03;;;6.80;;
5343;SDS011;2694;48.954;8.928;2024-01-06T14:59:27;12.90;;;6.60;;
5343;SDS011;2694;48.954;8.928;2024-01-06T15:01:53;12.02;;;6.95;;
5343;SDS011;2694;48.954;8.928;2024-01-06T15:04:20;14.73;;;7.85;;
5343;SDS011;2694;48.954;8.928;2024-01-06T15:06:47;14.07;;;8.10;;
5343;SDS011;2694;48.954;8.928;2024-01-06T15:09:14;15.00;;;7.70;;
5343;SDS011;2694;48.954;8.928;2024-01-06T15:11:41;16.13;;;8.70;;
5343;SDS011;2694;48.954;8.928;2024-01-06T15:14:10;15.68;;;8.60;;
5343;SDS011;2694;48.954;8.928;2024-01-06T15:16:36;22.27;;;11.55;;
5343;SDS011;2694;48.954;8.928;2024-01-06T15:19:03;13.83;;;9.00;;
5343;SDS011;2694;48.954;8.928;2024-01-06T15:21:32;17.48;;;8.40;;